Aviation Digital Data Service (ADDS)

Output produced by METARs form (0759 UTC 11 December 2016)
found at http://aviationweather.gov/adds/metars/
 
KINT 110540Z 1106/1206 00000KT P6SM SCT250 
     FM111700 17007KT P6SM SCT040 BKN250 
     FM112100 17007KT P6SM BKN025 OVC035 
     FM120100 22003KT P6SM -RA OVC016